Time;durP1;ratioP1;P1;durP2;ratioP2;P2;SDS_P1;SDS_P2;PMS_P1;PMS_P2;Temp;Humidity;BMP_temperature;BMP_pressure;BME280_temperature;BME280_humidity;BME280_pressure;Samples;Min_cycle;Max_cycle;Signal;HPM_P1;HPM_P2
2023/10/01 00:00:36;;;;;;;;;;;;;;;;;;5031079;28;20258;-57
2023/10/01 00:03:04;;;;;;;21.95;20.13;;;;;;;;;;5035924;28;20645;-56
2023/10/01 00:05:29;;;;;;;14.07;12.27;;;;;;;;;;5032933;28;20036;-59
2023/10/01 00:07:54;;;;;;;16.43;14.77;;;;;;;;;;5038509;28;20096;-57
2023/10/01 00:10:20;;;;;;;10.47;6.97;;;;;;;;;;5033972;28;20032;-57
2023/10/01 00:12:46;;;;;;;12.23;10.65;;;;;;;;;;5030982;28;20021;-58
2023/10/01 00:15:13;;;;;;;17.65;15.80;;;;;;;;;;5030009;28;20028;-57
2023/10/01 00:17:39;;;;;;;24.20;22.15;;;;;;;;;;5031385;28;20127;-56
2023/10/01 00:20:11;;;;;;;12.50;11.20;;;;;;;;;;5034503;28;20018;-58
2023/10/01 00:22:37;;;;;;;22.60;20.80;;;;;;;;;;5034346;28;20354;-59
2023/10/01 00:25:05;;;;;;;30.38;28.02;;;;;;;;;;5032878;28;20021;-57
2023/10/01 00:27:30;;;;;;;18.80;17.10;;;;;;;;;;5031403;28;20409;-59
2023/10/01 00:29:56;;;;;;;13.03;11.70;;;;;;;;;;5029154;28;20501;-58
2023/10/01 00:32:22;;;;;;;14.95;13.63;;;;;;;;;;5033613;28;20429;-59
2023/10/01 00:34:47;;;;;;;13.43;12.18;;;;;;;;;;5035635;28;20060;-59
2023/10/01 00:37:12;;;;;;;20.23;18.45;;;;;;;;;;5034568;28;20053;-59
2023/10/01 00:39:38;;;;;;;23.20;21.27;;;;;;;;;;5033007;28;20497;-58
2023/10/01 00:42:06;;;;;;;17.13;15.77;;;;;;;;;;5033294;28;20029;-57
2023/10/01 00:44:31;;;;;;;19.80;18.05;;;;;;;;;;5031301;28;20544;-57
2023/10/01 00:46:56;;;;;;;20.40;18.73;;;;;;;;;;5032264;28;20104;-58
2023/10/01 00:49:23;;;;;;;24.67;22.73;;;;;;;;;;5027030;28;20021;-58
2023/10/01 00:51:48;;;;;;;15.48;14.13;;;;;;;;;;5030537;28;20112;-58
2023/10/01 00:54:13;;;;;;;18.08;16.58;;;;;;;;;;5030739;28;20045;-57
2023/10/01 00:56:39;;;;;;;13.97;12.57;;;;;;;;;;5030871;28;20017;-57
2023/10/01 00:59:05;;;;;;;18.02;16.48;;;;;;;;;;5030217;28;20074;-58
2023/10/01 01:01:30;;;;;;;21.70;19.88;;;;;;;;;;5029246;28;20030;-58
2023/10/01 01:03:56;;;;;;;21.60;19.73;;;;;;;;;;5029779;28;20048;-58
2023/10/01 01:06:24;;;;;;;17.75;15.77;;;;;;;;;;5031238;28;20049;-58
2023/10/01 01:08:54;;;;;;;14.43;13.02;;;;;;;;;;5029693;28;20021;-58
2023/10/01 01:11:21;;;;;;;15.90;14.45;;;;;;;;;;5030693;28;20110;-58
2023/10/01 01:13:47;;;;;;;16.13;14.50;;;;;;;;;;5030186;28;20028;-58
2023/10/01 01:16:13;;;;;;;10.90;9.13;;;;;;;;;;5030272;28;20026;-58
2023/10/01 01:18:38;;;;;;;22.70;20.88;;;;;;;;;;5025787;28;20443;-57
2023/10/01 01:21:09;;;;;;;26.65;24.70;;;;;;;;;;5025438;28;20109;-58
2023/10/01 01:23:35;;;;;;;18.20;16.33;;;;;;;;;;5028338;28;20029;-58
2023/10/01 01:26:00;;;;;;;14.80;11.43;;;;;;;;;;5030098;28;20440;-57
2023/10/01 01:28:27;;;;;;;16.23;14.87;;;;;;;;;;5030324;28;20064;-59
2023/10/01 01:30:53;;;;;;;16.13;11.18;;;;;;;;;;5028895;28;20381;-59
2023/10/01 01:33:21;;;;;;;12.85;10.60;;;;;;;;;;5030375;28;20021;-59
2023/10/01 01:35:49;;;;;;;21.08;19.20;;;;;;;;;;5027004;28;20109;-58
2023/10/01 01:38:15;;;;;;;11.43;9.43;;;;;;;;;;5029584;28;20022;-59
2023/10/01 01:40:42;;;;;;;49.47;45.50;;;;;;;;;;5029950;28;20040;-58
2023/10/01 01:43:21;;;;;;;15.55;14.07;;;;;;;;;;5030187;28;20037;-58
2023/10/01 01:45:54;;;;;;;11.15;6.90;;;;;;;;;;5018280;28;20079;-58
2023/10/01 01:48:21;;;;;;;20.90;19.00;;;;;;;;;;5028501;28;20489;-59
2023/10/01 01:50:50;;;;;;;11.52;9.82;;;;;;;;;;5026542;28;20104;-58
2023/10/01 01:53:18;;;;;;;14.60;13.10;;;;;;;;;;5028706;28;20397;-58
2023/10/01 01:55:43;;;;;;;11.27;8.02;;;;;;;;;;5027896;28;20041;-58
2023/10/01 01:58:08;;;;;;;33.23;30.60;;;;;;;;;;5028384;28;20064;-57
2023/10/01 02:00:35;;;;;;;23.00;21.00;;;;;;;;;;5031687;28;20568;-58
2023/10/01 02:03:05;;;;;;;11.98;10.18;;;;;;;;;;5035757;28;20456;-58
2023/10/01 02:05:30;;;;;;;33.00;30.40;;;;;;;;;;5029337;28;20515;-58
2023/10/01 02:08:05;;;;;;;18.40;16.50;;;;;;;;;;5027667;28;20021;-58
2023/10/01 02:10:31;;;;;;;17.20;15.57;;;;;;;;;;5030458;28;20048;-59
2023/10/01 02:12:56;;;;;;;33.50;31.13;;;;;;;;;;5030083;28;20049;-58
2023/10/01 02:15:24;;;;;;;16.67;15.20;;;;;;;;;;5028251;28;20059;-59
2023/10/01 02:17:49;;;;;;;15.70;12.77;;;;;;;;;;5030458;28;20377;-58
2023/10/01 02:20:22;;;;;;;17.88;16.23;;;;;;;;;;5026946;28;20029;-59
2023/10/01 02:22:48;;;;;;;9.45;8.38;;;;;;;;;;5029887;28;20030;-57
2023/10/01 02:25:14;;;;;;;10.88;8.90;;;;;;;;;;5028393;28;20021;-59
2023/10/01 02:27:49;;;;;;;12.90;11.60;;;;;;;;;;5029012;28;20040;-58
2023/10/01 02:30:16;;;;;;;17.52;15.70;;;;;;;;;;5028579;28;20034;-58
2023/10/01 02:33:15;;;;;;;13.35;8.63;;;;;;;;;;5026702;28;20033;-59
2023/10/01 02:35:35;;;;;;;12.05;8.77;;;;;;;;;;5031310;28;20484;-58
2023/10/01 02:38:07;;;;;;;25.50;23.67;;;;;;;;;;5033577;28;20037;-59
2023/10/01 02:40:37;;;;;;;11.88;10.68;;;;;;;;;;5032386;28;20033;-59
2023/10/01 02:43:06;;;;;;;10.18;7.70;;;;;;;;;;5032567;28;20032;-59
2023/10/01 02:45:31;;;;;;;17.20;15.63;;;;;;;;;;5033094;28;20017;-59
2023/10/01 02:48:16;;;;;;;12.75;10.18;;;;;;;;;;5030882;28;20504;-58
2023/10/01 02:50:45;;;;;;;15.13;13.75;;;;;;;;;;5032550;28;20017;-57
2023/10/01 02:53:10;;;;;;;16.00;14.45;;;;;;;;;;5031749;28;20048;-57
2023/10/01 02:55:41;;;;;;;11.38;8.68;;;;;;;;;;5033823;28;20041;-59
2023/10/01 02:58:17;;;;;;;13.27;11.98;;;;;;;;;;5030276;28;20485;-59
2023/10/01 03:00:43;;;;;;;9.88;6.95;;;;;;;;;;5032400;28;20112;-59
2023/10/01 03:03:14;;;;;;;13.70;7.47;;;;;;;;;;5031566;28;20159;-58
2023/10/01 03:05:42;;;;;;;12.68;9.48;;;;;;;;;;5032798;28;20036;-59
2023/10/01 03:08:11;;;;;;;8.43;5.28;;;;;;;;;;5032235;28;20041;-58
2023/10/01 03:10:38;;;;;;;21.08;19.35;;;;;;;;;;5032143;28;20045;-59
2023/10/01 03:13:16;;;;;;;24.95;23.15;;;;;;;;;;5032128;28;20064;-59
2023/10/01 03:15:41;;;;;;;;;;;;;;;;;;5033402;28;20021;-58
2023/10/01 03:18:08;;;;;;;12.18;10.98;;;;;;;;;;5027789;28;19996;-58
2023/10/01 03:26:08;;;;;;;14.93;13.63;;;;;;;;;;5029485;28;20037;-60
2023/10/01 03:29:34;;;;;;;24.42;22.70;;;;;;;;;;5030726;28;20053;-59
2023/10/01 03:31:29;;;;;;;15.95;14.43;;;;;;;;;;5029293;28;20149;-59
2023/10/01 03:33:54;;;;;;;15.90;14.43;;;;;;;;;;5030763;28;20097;-59
2023/10/01 03:36:28;;;;;;;12.67;11.53;;;;;;;;;;5032242;28;20111;-58
2023/10/01 03:39:23;;;;;;;13.77;12.48;;;;;;;;;;5029046;28;20440;-59
2023/10/01 03:41:54;;;;;;;13.32;10.48;;;;;;;;;;5024195;28;20032;-58
2023/10/01 03:47:05;;;;;;;27.55;25.42;;;;;;;;;;5029229;28;20032;-59
2023/10/01 03:49:45;;;;;;;15.38;13.85;;;;;;;;;;5031553;28;20029;-58
2023/10/01 03:52:14;;;;;;;27.17;25.13;;;;;;;;;;5025839;28;20053;-59
2023/10/01 03:57:52;;;;;;;35.67;32.53;;;;;;;;;;5030017;28;20060;-59
2023/10/01 04:00:29;;;;;;;20.27;18.52;;;;;;;;;;5030444;28;20029;-59
2023/10/01 04:02:54;;;;;;;33.42;30.92;;;;;;;;;;5024739;28;20037;-60
2023/10/01 04:05:23;;;;;;;27.40;25.23;;;;;;;;;;5029209;28;20464;-58
2023/10/01 04:07:48;;;;;;;13.55;12.23;;;;;;;;;;5031426;28;20105;-59
2023/10/01 04:10:15;;;;;;;15.07;13.60;;;;;;;;;;5028843;28;20104;-58
2023/10/01 04:12:58;;;;;;;14.23;13.02;;;;;;;;;;5025213;28;20798;-58
2023/10/01 04:15:28;;;;;;;15.27;13.80;;;;;;;;;;5038618;28;20029;-57
2023/10/01 04:18:09;;;;;;;14.02;12.75;;;;;;;;;;5031870;28;20101;-58
2023/10/01 04:20:36;;;;;;;14.05;12.60;;;;;;;;;;5030440;28;20037;-58
2023/10/01 04:23:04;;;;;;;16.95;15.43;;;;;;;;;;5031466;28;20010;-58
2023/10/01 04:25:38;;;;;;;15.40;13.98;;;;;;;;;;5030258;28;20098;-58
2023/10/01 04:28:08;;;;;;;54.08;50.55;;;;;;;;;;5027939;28;20021;-58
2023/10/01 04:30:37;;;;;;;15.20;13.77;;;;;;;;;;5029600;28;20493;-58
2023/10/01 04:33:17;;;;;;;12.32;11.07;;;;;;;;;;5028554;28;20028;-58
2023/10/01 04:35:51;;;;;;;17.60;15.57;;;;;;;;;;5037785;28;20017;-57
2023/10/01 04:38:18;;;;;;;18.98;17.55;;;;;;;;;;5036161;28;20066;-58
2023/10/01 04:40:46;;;;;;;14.40;13.05;;;;;;;;;;5030075;28;20108;-59
2023/10/01 04:43:13;;;;;;;13.80;12.40;;;;;;;;;;5029466;28;20060;-59
2023/10/01 04:45:40;;;;;;;24.88;22.88;;;;;;;;;;5030505;28;20021;-57
2023/10/01 04:48:24;;;;;;;19.42;17.85;;;;;;;;;;5030660;28;20029;-57
2023/10/01 04:50:55;;;;;;;11.90;10.68;;;;;;;;;;5023416;28;20033;-58
2023/10/01 04:53:22;;;;;;;28.92;26.88;;;;;;;;;;5030002;28;20107;-59
2023/10/01 04:56:06;;;;;;;18.13;16.40;;;;;;;;;;5030807;28;20083;-58
2023/10/01 04:58:32;;;;;;;19.80;17.85;;;;;;;;;;5031564;28;20021;-59
2023/10/01 05:00:58;;;;;;;10.63;9.52;;;;;;;;;;5031037;28;20631;-59
2023/10/01 05:03:38;;;;;;;25.75;23.45;;;;;;;;;;5030828;28;20086;-58
2023/10/01 05:06:07;;;;;;;23.70;21.98;;;;;;;;;;5030286;28;20040;-58
2023/10/01 05:08:38;;;;;;;26.35;24.13;;;;;;;;;;5030209;28;20021;-58
2023/10/01 05:11:04;;;;;;;19.77;18.05;;;;;;;;;;5031958;28;20104;-58
2023/10/01 05:13:31;;;;;;;14.98;13.48;;;;;;;;;;5036551;28;20063;-58
2023/10/01 05:15:56;;;;;;;53.45;50.10;;;;;;;;;;5033771;28;20087;-59
2023/10/01 05:18:28;;;;;;;25.40;23.20;;;;;;;;;;5025581;28;20598;-56
2023/10/01 05:20:58;;;;;;;18.50;16.80;;;;;;;;;;5029985;28;20026;-59
2023/10/01 05:23:26;;;;;;;15.27;13.93;;;;;;;;;;5030657;28;20040;-58
2023/10/01 05:25:51;;;;;;;15.45;14.02;;;;;;;;;;5027329;28;20385;-59
2023/10/01 05:28:31;;;;;;;17.00;15.45;;;;;;;;;;5031151;28;20017;-58
2023/10/01 05:31:12;;;;;;;14.07;12.68;;;;;;;;;;5027490;28;20025;-58
2023/10/01 05:33:38;;;;;;;31.48;29.23;;;;;;;;;;5030391;28;20079;-59
2023/10/01 05:36:06;;;;;;;19.83;18.02;;;;;;;;;;5030898;28;20549;-58
2023/10/01 05:38:34;;;;;;;15.43;13.95;;;;;;;;;;5030873;28;20022;-58
2023/10/01 05:41:03;;;;;;;34.25;31.60;;;;;;;;;;5029014;28;20030;-59
2023/10/01 05:43:35;;;;;;;14.02;12.82;;;;;;;;;;5030447;28;20025;-58
2023/10/01 05:46:01;;;;;;;33.60;31.13;;;;;;;;;;5028546;28;20010;-59
2023/10/01 05:48:26;;;;;;;25.80;23.75;;;;;;;;;;5029856;28;20029;-59
2023/10/01 05:50:53;;;;;;;22.33;20.53;;;;;;;;;;5024677;28;20030;-58
2023/10/01 05:53:18;;;;;;;23.83;21.83;;;;;;;;;;5027683;28;20079;-57
2023/10/01 05:55:44;;;;;;;29.08;26.88;;;;;;;;;;5030384;28;20017;-59
2023/10/01 05:58:16;;;;;;;19.40;17.83;;;;;;;;;;5030645;28;20024;-58
2023/10/01 06:00:45;;;;;;;22.15;20.20;;;;;;;;;;5030551;28;20030;-58
2023/10/01 06:03:13;;;;;;;26.05;23.98;;;;;;;;;;5031024;28;20114;-58
2023/10/01 06:08:17;;;;;;;23.50;21.45;;;;;;;;;;5030799;28;20112;-59
2023/10/01 06:10:48;;;;;;;21.25;19.38;;;;;;;;;;5033389;28;20429;-58
2023/10/01 06:13:14;;;;;;;18.75;17.15;;;;;;;;;;5034846;28;20014;-59
2023/10/01 06:15:39;;;;;;;17.95;16.30;;;;;;;;;;5032866;28;20374;-58
2023/10/01 06:18:05;;;;;;;19.75;17.80;;;;;;;;;;5033614;28;20048;-58
2023/10/01 06:20:33;;;;;;;32.95;30.42;;;;;;;;;;5033751;28;20485;-58
2023/10/01 06:22:59;;;;;;;33.05;30.30;;;;;;;;;;5030281;28;20059;-58
2023/10/01 06:25:48;;;;;;;30.05;27.50;;;;;;;;;;5034162;28;20021;-58
2023/10/01 06:28:20;;;;;;;49.35;45.72;;;;;;;;;;5033987;28;20561;-58
2023/10/01 06:30:45;;;;;;;41.05;38.33;;;;;;;;;;5031786;28;20025;-57
2023/10/01 06:33:24;;;;;;;53.15;49.28;;;;;;;;;;5034254;28;20042;-58
2023/10/01 06:36:15;;;;;;;23.15;21.33;;;;;;;;;;5034050;28;20489;-58
2023/10/01 06:38:41;;;;;;;39.13;36.35;;;;;;;;;;5033328;28;20115;-59
2023/10/01 06:41:13;;;;;;;30.92;28.45;;;;;;;;;;5031866;28;20053;-58
2023/10/01 06:43:44;;;;;;;32.58;30.13;;;;;;;;;;5029659;28;20104;-59
2023/10/01 06:46:11;;;;;;;70.80;66.18;;;;;;;;;;5029775;28;20025;-58
2023/10/01 06:48:39;;;;;;;106.68;99.63;;;;;;;;;;5033363;28;20388;-58
2023/10/01 06:51:05;;;;;;;30.63;28.38;;;;;;;;;;5028671;28;20104;-59
2023/10/01 06:53:43;;;;;;;65.45;61.10;;;;;;;;;;5033336;28;20096;-57
2023/10/01 06:56:09;;;;;;;20.73;19.10;;;;;;;;;;5028678;28;20112;-59
2023/10/01 06:58:34;;;;;;;60.13;56.08;;;;;;;;;;5025135;28;20459;-59
2023/10/01 07:01:00;;;;;;;60.75;56.42;;;;;;;;;;5023199;28;20030;-58
2023/10/01 07:03:30;;;;;;;48.80;45.38;;;;;;;;;;5028736;28;20030;-59
2023/10/01 07:05:57;;;;;;;26.65;24.67;;;;;;;;;;5024805;28;20100;-59
2023/10/01 07:08:37;;;;;;;37.92;35.13;;;;;;;;;;5023808;28;20021;-59
2023/10/01 07:11:11;;;;;;;24.52;22.70;;;;;;;;;;5032366;28;20485;-58
2023/10/01 07:13:37;;;;;;;36.45;34.00;;;;;;;;;;5032065;28;20496;-58
2023/10/01 07:16:03;;;;;;;;;;;;;;;;;;5032281;28;20022;-58
2023/10/01 07:18:29;;;;;;;154.05;143.75;;;;;;;;;;5032695;28;19916;-56
2023/10/01 07:21:00;;;;;;;52.88;49.05;;;;;;;;;;5030475;28;20371;-58
2023/10/01 07:23:25;;;;;;;38.22;35.33;;;;;;;;;;5032305;28;20025;-59
2023/10/01 07:25:59;;;;;;;51.20;47.70;;;;;;;;;;5028869;28;20022;-58
2023/10/01 07:28:24;;;;;;;98.07;90.68;;;;;;;;;;5029712;28;20673;-59
2023/10/01 07:30:54;;;;;;;79.30;73.80;;;;;;;;;;5032455;28;20017;-59
2023/10/01 07:33:22;;;;;;;42.22;39.17;;;;;;;;;;5030659;28;20037;-59
2023/10/01 07:35:59;;;;;;;43.58;40.47;;;;;;;;;;5024819;28;20057;-59
2023/10/01 07:38:25;;;;;;;27.25;25.00;;;;;;;;;;5027930;28;20083;-59
2023/10/01 07:40:57;;;;;;;19.45;17.85;;;;;;;;;;5030853;28;20038;-60
2023/10/01 07:43:22;;;;;;;83.40;77.65;;;;;;;;;;5033387;28;20032;-59
2023/10/01 07:45:55;;;;;;;26.08;24.10;;;;;;;;;;5031066;28;20117;-59
2023/10/01 07:48:23;;;;;;;23.02;21.40;;;;;;;;;;5028956;28;20081;-59
2023/10/01 07:50:48;;;;;;;42.45;39.65;;;;;;;;;;5031828;28;20017;-58
2023/10/01 07:53:13;;;;;;;23.30;21.50;;;;;;;;;;5032706;28;20022;-59
2023/10/01 07:55:38;;;;;;;24.17;22.37;;;;;;;;;;5036206;28;20017;-59
2023/10/01 08:00:47;;;;;;;;;;;;;;;;;;5030818;28;20401;-60
2023/10/01 08:05:47;;;;;;;43.13;40.13;;;;;;;;;;5029163;28;20081;-59
2023/10/01 08:08:13;;;;;;;103.65;96.68;;;;;;;;;;5032896;28;20025;-59
2023/10/01 08:10:39;;;;;;;60.92;57.05;;;;;;;;;;5034127;28;20035;-60
2023/10/01 08:13:07;;;;;;;56.38;52.70;;;;;;;;;;5033806;28;20109;-60
2023/10/01 08:15:39;;;;;;;59.63;55.20;;;;;;;;;;5030050;28;20036;-59
2023/10/01 08:18:26;;;;;;;93.32;87.47;;;;;;;;;;5031601;28;20028;-59
2023/10/01 08:20:58;;;;;;;134.02;125.13;;;;;;;;;;5025798;28;20029;-60
2023/10/01 08:23:24;;;;;;;44.85;41.70;;;;;;;;;;5034088;28;20469;-59
2023/10/01 08:25:55;;;;;;;145.10;135.50;;;;;;;;;;5026938;28;20067;-59
2023/10/01 08:30:49;;;;;;;91.30;84.50;;;;;;;;;;5030399;28;20020;-60
2023/10/01 08:33:22;;;;;;;131.35;122.28;;;;;;;;;;5003930;28;20025;-59
2023/10/01 08:35:56;;;;;;;70.38;66.22;;;;;;;;;;5023255;28;20021;-60
2023/10/01 08:38:22;;;;;;;170.70;159.45;;;;;;;;;;5030062;28;20025;-59
2023/10/01 08:40:49;;;;;;;136.80;127.93;;;;;;;;;;5031313;28;20124;-59
2023/10/01 08:43:16;;;;;;;122.50;114.80;;;;;;;;;;5031054;28;20447;-60
2023/10/01 08:45:43;;;;;;;68.68;64.47;;;;;;;;;;5031554;28;20021;-59
2023/10/01 08:48:17;;;;;;;281.40;260.80;;;;;;;;;;5035543;28;20485;-59
2023/10/01 08:50:45;;;;;;;167.80;156.57;;;;;;;;;;5030979;28;20036;-60
2023/10/01 08:53:12;;;;;;;217.85;203.85;;;;;;;;;;5033853;28;20017;-60
2023/10/01 08:58:15;;;;;;;256.35;240.15;;;;;;;;;;5031733;28;20050;-60
2023/10/01 09:00:48;;;;;;;155.45;146.18;;;;;;;;;;5030238;28;20540;-59
2023/10/01 09:03:26;;;;;;;165.30;154.65;;;;;;;;;;5029891;28;20029;-60
2023/10/01 09:06:01;;;;;;;;;;;;;;;;;;5026872;28;20020;-60
2023/10/01 09:08:29;;;;;;;217.20;198.07;;;;;;;;;;5030417;28;19968;-59
2023/10/01 09:10:54;;;;;;;221.88;205.80;;;;;;;;;;5030413;28;20156;-59
2023/10/01 09:13:23;;;;;;;364.40;321.63;;;;;;;;;;5030997;28;20120;-61
2023/10/01 09:15:54;;;;;;;245.10;228.88;;;;;;;;;;5031491;28;20013;-58
2023/10/01 09:18:22;;;;;;;236.05;219.38;;;;;;;;;;5031211;28;20041;-60
2023/10/01 09:21:06;;;;;;;292.92;270.60;;;;;;;;;;5030879;28;20100;-60
2023/10/01 09:23:56;;;;;;;285.92;266.65;;;;;;;;;;5031378;28;20108;-60
2023/10/01 09:26:39;;;;;;;251.65;234.70;;;;;;;;;;5030735;28;20075;-60
2023/10/01 09:29:13;;;;;;;355.58;332.48;;;;;;;;;;5030882;28;20662;-58
2023/10/01 09:31:56;;;;;;;375.95;348.35;;;;;;;;;;5030888;28;20477;-59
2023/10/01 09:34:31;;;;;;;281.70;261.23;;;;;;;;;;5031657;28;20496;-61
2023/10/01 09:37:03;;;;;;;230.18;213.65;;;;;;;;;;5031428;28;20021;-61
2023/10/01 09:39:38;;;;;;;317.70;294.83;;;;;;;;;;5030318;28;20018;-61
2023/10/01 09:42:28;;;;;;;332.38;305.92;;;;;;;;;;5030791;28;20068;-59
2023/10/01 09:44:54;;;;;;;252.45;234.00;;;;;;;;;;5030561;28;20026;-60
2023/10/01 09:47:24;;;;;;;242.85;225.70;;;;;;;;;;5030558;28;20052;-59
2023/10/01 09:49:51;;;;;;;339.23;314.52;;;;;;;;;;5030175;28;20021;-59
2023/10/01 09:52:26;;;;;;;424.85;394.58;;;;;;;;;;5030806;28;20104;-60
2023/10/01 09:54:55;;;;;;;304.80;283.20;;;;;;;;;;5031355;28;20029;-60
2023/10/01 09:57:20;;;;;;;299.77;277.77;;;;;;;;;;5030714;28;20026;-60
2023/10/01 09:59:49;;;;;;;252.23;233.77;;;;;;;;;;5030315;28;20117;-61
2023/10/01 10:02:27;;;;;;;399.55;365.65;;;;;;;;;;5030381;28;20034;-61
2023/10/01 10:04:53;;;;;;;302.35;279.02;;;;;;;;;;5030851;28;20052;-61
2023/10/01 10:07:24;;;;;;;338.95;313.20;;;;;;;;;;5030354;28;20018;-61
2023/10/01 10:09:54;;;;;;;356.40;328.80;;;;;;;;;;5030012;28;20528;-60
2023/10/01 10:12:30;;;;;;;298.65;273.08;;;;;;;;;;5030441;28;20021;-60
2023/10/01 10:14:58;;;;;;;345.52;317.83;;;;;;;;;;5030411;28;20021;-60
2023/10/01 10:17:25;;;;;;;341.95;319.27;;;;;;;;;;5030554;28;20022;-61
2023/10/01 10:20:15;;;;;;;294.95;267.00;;;;;;;;;;5029985;28;20057;-61
2023/10/01 10:23:02;;;;;;;412.02;382.67;;;;;;;;;;5030431;28;20038;-61
2023/10/01 10:25:27;;;;;;;357.70;327.85;;;;;;;;;;5030242;28;20163;-61
2023/10/01 10:27:52;;;;;;;338.33;312.03;;;;;;;;;;5030164;28;20512;-61
2023/10/01 10:30:21;;;;;;;379.13;350.33;;;;;;;;;;5029909;28;20021;-60
2023/10/01 10:33:05;;;;;;;334.25;310.77;;;;;;;;;;5030430;28;20105;-61
2023/10/01 10:35:30;;;;;;;369.75;343.58;;;;;;;;;;5030319;28;20388;-61
2023/10/01 10:37:56;;;;;;;396.40;364.43;;;;;;;;;;5030599;28;20032;-58
2023/10/01 10:42:46;;;;;;;471.88;367.20;;;;;;;;;;5030725;28;20022;-60
2023/10/01 10:45:19;;;;;;;316.08;288.52;;;;;;;;;;5030650;28;20028;-60
2023/10/01 10:48:05;;;;;;;435.60;382.10;;;;;;;;;;5030108;28;20018;-61
2023/10/01 10:50:49;;;;;;;303.40;280.63;;;;;;;;;;5029509;28;20025;-60
2023/10/01 10:53:16;;;;;;;367.02;338.05;;;;;;;;;;5030222;28;20033;-61
2023/10/01 10:55:54;;;;;;;478.00;442.13;;;;;;;;;;5030067;28;20079;-60
2023/10/01 10:58:20;;;;;;;424.38;390.55;;;;;;;;;;5033970;28;20536;-60
2023/10/01 11:00:46;;;;;;;;;;;;;;;;;;5033797;28;20033;-60
2023/10/01 11:03:11;;;;;;;445.67;397.30;;;;;;;;;;5034081;28;20265;-61
2023/10/01 11:05:52;;;;;;;885.28;514.85;;;;;;;;;;5033539;28;20014;-61
2023/10/01 11:08:27;;;;;;;367.42;339.17;;;;;;;;;;5033473;28;20068;-59
2023/10/01 11:10:57;;;;;;;368.20;338.17;;;;;;;;;;5033156;28;20013;-60
2023/10/01 11:13:38;;;;;;;376.92;343.80;;;;;;;;;;5033633;28;20362;-59
2023/10/01 11:16:14;;;;;;;807.58;572.28;;;;;;;;;;5033613;28;20482;-59
2023/10/01 11:18:41;;;;;;;362.77;324.40;;;;;;;;;;5033480;28;20109;-59
2023/10/01 11:21:10;;;;;;;408.33;370.80;;;;;;;;;;5031570;28;20603;-59
2023/10/01 11:23:36;;;;;;;392.60;360.83;;;;;;;;;;5033074;28;20185;-59
2023/10/01 11:26:06;;;;;;;405.83;370.83;;;;;;;;;;5033112;28;20506;-60
2023/10/01 11:28:41;;;;;;;308.10;284.45;;;;;;;;;;5031824;28;20028;-59
2023/10/01 11:31:20;;;;;;;400.73;368.25;;;;;;;;;;5032811;28;20520;-59
2023/10/01 11:33:57;;;;;;;377.58;348.67;;;;;;;;;;5033101;28;20073;-60
2023/10/01 11:36:22;;;;;;;518.83;459.38;;;;;;;;;;5032992;28;20021;-59
2023/10/01 11:38:49;;;;;;;420.40;385.10;;;;;;;;;;5033072;28;20080;-60
2023/10/01 11:41:18;;;;;;;420.70;387.10;;;;;;;;;;5032460;28;20029;-58
2023/10/01 11:43:58;;;;;;;410.60;378.20;;;;;;;;;;5032948;28;20040;-61
2023/10/01 11:46:25;;;;;;;462.30;426.77;;;;;;;;;;5033039;28;20026;-61
2023/10/01 11:48:59;;;;;;;494.17;453.33;;;;;;;;;;5032596;28;20052;-60
2023/10/01 11:51:32;;;;;;;361.23;331.60;;;;;;;;;;5032568;28;20581;-61
2023/10/01 11:53:58;;;;;;;315.77;292.85;;;;;;;;;;5032244;28;20027;-60
2023/10/01 11:56:23;;;;;;;387.48;357.55;;;;;;;;;;5032640;28;20068;-61
2023/10/01 11:58:48;;;;;;;385.25;353.23;;;;;;;;;;5032304;28;20025;-60
2023/10/01 12:01:13;;;;;;;346.57;317.57;;;;;;;;;;5032241;28;20055;-61
2023/10/01 12:03:39;;;;;;;380.50;339.33;;;;;;;;;;5032496;28;20018;-60
2023/10/01 12:06:04;;;;;;;463.53;426.37;;;;;;;;;;5032877;28;20033;-61
2023/10/01 12:08:35;;;;;;;375.70;345.93;;;;;;;;;;5032304;28;20017;-58
2023/10/01 12:11:26;;;;;;;361.55;331.65;;;;;;;;;;5032126;28;20452;-59
2023/10/01 12:14:04;;;;;;;429.48;395.88;;;;;;;;;;5032314;28;20029;-61
2023/10/01 12:16:30;;;;;;;414.38;382.70;;;;;;;;;;5032757;28;20022;-58
2023/10/01 12:19:17;;;;;;;404.17;372.17;;;;;;;;;;5031942;28;20414;-61
2023/10/01 12:21:40;;;;;;;360.60;332.02;;;;;;;;;;5032092;28;20037;-60
2023/10/01 12:24:12;;;;;;;373.67;341.60;;;;;;;;;;5032186;28;20021;-60
2023/10/01 12:26:38;;;;;;;296.83;275.80;;;;;;;;;;5032211;28;20037;-60
2023/10/01 12:29:13;;;;;;;491.48;452.15;;;;;;;;;;5031613;28;20033;-60
2023/10/01 12:31:40;;;;;;;287.35;269.08;;;;;;;;;;5031947;28;20105;-61
2023/10/01 12:34:06;;;;;;;305.10;284.63;;;;;;;;;;5031959;28;20100;-61
2023/10/01 12:36:46;;;;;;;513.00;472.10;;;;;;;;;;5031896;28;20437;-61
2023/10/01 12:42:11;;;;;;;355.30;328.40;;;;;;;;;;5031750;28;20057;-60
2023/10/01 12:44:28;;;;;;;318.63;297.92;;;;;;;;;;5029559;28;20045;-61
2023/10/01 12:46:54;;;;;;;295.00;276.52;;;;;;;;;;5031617;28;20021;-60
2023/10/01 12:49:20;;;;;;;301.40;282.30;;;;;;;;;;5031081;28;20077;-59
2023/10/01 12:51:48;;;;;;;473.08;435.17;;;;;;;;;;5032340;28;20033;-61
2023/10/01 12:54:18;;;;;;;584.17;504.13;;;;;;;;;;5031639;28;20009;-60
2023/10/01 12:56:44;;;;;;;454.45;418.65;;;;;;;;;;5031712;28;20017;-60
2023/10/01 12:59:18;;;;;;;326.98;301.75;;;;;;;;;;5030956;28;20377;-60
2023/10/01 13:01:43;;;;;;;316.20;294.58;;;;;;;;;;5031538;28;20030;-60
2023/10/01 13:04:25;;;;;;;305.17;280.67;;;;;;;;;;5031455;28;20104;-59
2023/10/01 13:06:51;;;;;;;341.10;313.83;;;;;;;;;;5031425;28;20086;-61
2023/10/01 13:12:13;;;;;;;398.50;369.30;;;;;;;;;;5032150;28;20070;-61
2023/10/01 13:14:39;;;;;;;289.70;269.02;;;;;;;;;;5032358;28;20029;-60
2023/10/01 13:17:04;;;;;;;328.45;306.13;;;;;;;;;;5031443;28;20035;-60
2023/10/01 13:19:35;;;;;;;306.30;286.47;;;;;;;;;;5029732;28;20060;-60
2023/10/01 13:22:04;;;;;;;343.90;317.42;;;;;;;;;;5031283;28;20037;-60
2023/10/01 13:24:29;;;;;;;445.05;410.98;;;;;;;;;;5031277;28;20029;-60
2023/10/01 13:27:10;;;;;;;481.07;442.30;;;;;;;;;;5030934;28;20017;-59
2023/10/01 13:29:35;;;;;;;393.90;361.80;;;;;;;;;;5029188;28;20044;-59
2023/10/01 13:32:03;;;;;;;313.30;288.53;;;;;;;;;;5030717;28;20461;-60
2023/10/01 13:34:48;;;;;;;408.98;372.35;;;;;;;;;;5030696;28;20108;-59
2023/10/01 13:37:42;;;;;;;253.73;235.52;;;;;;;;;;5031041;28;20072;-60
2023/10/01 14:10:04;;;;;;;480.63;442.42;;;;;;;;;;5029879;28;20052;-58
2023/10/01 14:12:42;;;;;;;371.42;342.02;;;;;;;;;;5029365;28;20064;-59
2023/10/01 14:15:24;;;;;;;381.10;351.60;;;;;;;;;;5030838;28;20056;-59
2023/10/01 14:17:56;;;;;;;320.85;296.00;;;;;;;;;;5030904;28;20024;-59
2023/10/01 14:23:10;;;;;;;452.02;383.27;;;;;;;;;;5030903;28;20072;-59
2023/10/01 14:25:58;;;;;;;334.45;307.75;;;;;;;;;;5030382;28;20044;-59
2023/10/01 14:28:24;;;;;;;370.52;340.60;;;;;;;;;;5030382;28;20028;-59
2023/10/01 14:31:08;;;;;;;428.60;388.25;;;;;;;;;;5031511;28;20125;-60
2023/10/01 14:33:39;;;;;;;405.10;374.13;;;;;;;;;;5034150;28;20022;-60
2023/10/01 14:36:04;;;;;;;438.13;403.25;;;;;;;;;;5034158;28;20495;-59
2023/10/01 14:38:37;;;;;;;365.20;335.02;;;;;;;;;;5034247;28;20025;-59
2023/10/01 14:41:09;;;;;;;406.08;373.23;;;;;;;;;;5033566;28;20573;-60
2023/10/01 14:43:35;;;;;;;385.30;356.90;;;;;;;;;;5034021;28;20033;-58
2023/10/01 14:46:00;;;;;;;322.10;296.57;;;;;;;;;;5034104;28;20018;-59
2023/10/01 14:48:25;;;;;;;285.60;265.30;;;;;;;;;;5034244;28;20037;-59
2023/10/01 14:50:56;;;;;;;346.20;322.57;;;;;;;;;;5033334;28;20427;-59
2023/10/01 14:53:21;;;;;;;330.27;308.20;;;;;;;;;;5034146;28;20958;-59
2023/10/01 14:55:46;;;;;;;322.27;297.73;;;;;;;;;;5034176;28;20064;-59
2023/10/01 14:58:12;;;;;;;377.53;348.50;;;;;;;;;;5033849;28;20047;-59
2023/10/01 15:00:49;;;;;;;374.95;347.50;;;;;;;;;;5033261;28;20032;-60
2023/10/01 15:03:14;;;;;;;284.38;263.83;;;;;;;;;;5033624;28;20036;-59
2023/10/01 15:05:39;;;;;;;311.73;290.43;;;;;;;;;;5033707;28;20021;-60
2023/10/01 15:08:05;;;;;;;251.60;235.45;;;;;;;;;;5033601;28;20025;-60
2023/10/01 15:10:30;;;;;;;271.83;253.37;;;;;;;;;;5033065;28;20049;-59
2023/10/01 15:12:56;;;;;;;331.52;309.83;;;;;;;;;;5032392;28;20024;-60
2023/10/01 15:15:21;;;;;;;291.40;272.27;;;;;;;;;;5033503;28;20032;-60
2023/10/01 15:17:46;;;;;;;333.00;309.83;;;;;;;;;;5033507;28;20025;-60
2023/10/01 15:20:27;;;;;;;344.10;318.53;;;;;;;;;;5032645;28;20109;-59
2023/10/01 15:22:55;;;;;;;328.90;306.85;;;;;;;;;;5033523;28;20026;-60
2023/10/01 15:25:20;;;;;;;424.27;392.58;;;;;;;;;;5033588;28;20025;-60
2023/10/01 15:27:47;;;;;;;306.37;284.77;;;;;;;;;;5033218;28;20014;-60
2023/10/01 15:30:21;;;;;;;373.70;343.88;;;;;;;;;;5032428;28;20488;-60